Flight Track Log - Related Links

Times and Time Zones

All times are in EST time to prevent confusion due to time zone crossing. See the N92PS flight status page for this flight to view local times or setup timezone preferences in your user account.

Time Position Orientation Groundspeed Altitude Reporting Facility
EST Latitude Longitude Course Direction KTS MPH feet Rate Location/Type
Fri 01:09:11 PM 34.5460 -88.1850 51° Northeast 128 147 1,600  Level FlightAware ADS-B
Fri 01:11:23 PM 34.5903 -88.1042 51° Northeast 182 209 4,600 1,188 Climbing Memphis Center
Fri 01:12:23 PM 34.6106 -88.0683 55° Northeast 150 173 5,400 850 Climbing Memphis Center
Fri 01:13:23 PM 34.6350 -88.0325 50° Northeast 134 154 6,300 900 Climbing Memphis Center
Fri 01:14:23 PM 34.6594 -87.9964 51° Northeast 134 154 7,200 800 Climbing Memphis Center
Fri 01:15:23 PM 34.6836 -87.9603 51° Northeast 134 154 7,900 700 Climbing Memphis Center
Fri 01:16:23 PM 34.7100 -87.9192 52° Northeast 134 154 8,600 700 Climbing Memphis Center
Fri 01:17:23 PM 34.7342 -87.8781 54° Northeast 139 160 9,300 750 Climbing Memphis Center
Fri 01:18:23 PM 34.7606 -87.8317 55° Northeast 145 167 10,100 700 Climbing Memphis Center
Fri 01:19:23 PM 34.7867 -87.7856 55° Northeast 150 173 10,700 650 Climbing Memphis Center
Fri 01:20:23 PM 34.8128 -87.7392 56° Northeast 155 178 11,400 700 Climbing Memphis Center
Fri 01:21:23 PM 34.8408 -87.6928 54° Northeast 160 184 12,100 650 Climbing Memphis Center
Fri 01:22:23 PM 34.8669 -87.6439 57° Northeast 160 184 12,700 400 Climbing Memphis Center
Fri 01:23:23 PM 34.8994 -87.5947 51° Northeast 166 191 12,900 150 Climbing Memphis Center
Fri 01:24:23 PM 34.9317 -87.5431 53° Northeast 181 208 13,000 100 Climbing Memphis Center
Fri 01:25:23 PM 34.9678 -87.4911 50° Northeast 186 214 13,100 50 Climbing Memphis Center
Fri 01:26:23 PM 35.0022 -87.4417 50° Northeast 186 214 13,100  Level Memphis Center
Fri 01:27:23 PM 35.0386 -87.3897 49° Northeast 186 214 13,100  Level Memphis Center
Fri 01:28:23 PM 35.0769 -87.3403 47° Northeast 186 214 13,100  Level Memphis Center
Fri 01:29:23 PM 35.1133 -87.2881 50° Northeast 191 220 13,100  Level Memphis Center
Fri 01:30:23 PM 35.1472 -87.2336 53° Northeast 191 220 13,100  Level Memphis Center
Fri 01:31:23 PM 35.1814 -87.1789 53° Northeast 191 220 13,100  Level Memphis Center
Fri 01:32:23 PM 35.2133 -87.1244 54° Northeast 191 220 13,100 -66 Level Memphis Center
Fri 01:37:28 PM 35.3910 -86.8460 54° Northeast 201 231 12,700 -73 Descending FlightAware ADS-B
Fri 01:37:53 PM 35.4060 -86.8220 53° Northeast 202 232 12,700  Level FlightAware ADS-B
Fri 01:38:29 PM 35.4260 -86.7910 52° Northeast 202 232 12,700  Level FlightAware ADS-B
Fri 01:39:24 PM 35.4580 -86.7440 50° Northeast 201 231 12,700  Level FlightAware ADS-B
Fri 01:40:01 PM 35.4820 -86.7090 50° Northeast 201 231 12,700  Level FlightAware ADS-B
Fri 01:40:37 PM 35.5030 -86.6780 50° Northeast 200 230 12,700  Level FlightAware ADS-B
Fri 01:41:05 PM 35.5190 -86.6530 52° Northeast 200 230 12,700  Level FlightAware ADS-B
Fri 01:41:39 PM 35.5390 -86.6230 51° Northeast 201 231 12,700 -100 Level FlightAware ADS-B
Fri 01:42:05 PM 35.5540 -86.6000 51° Northeast 202 232 12,600 -63 Descending FlightAware ADS-B
Fri 01:43:15 PM 35.5950 -86.5350 52° Northeast 201 231 12,600  Level FlightAware ADS-B
Fri 01:43:48 PM 35.6140 -86.5070 50° Northeast 204 235 12,600  Level FlightAware ADS-B
Fri 01:44:53 PM 35.6520 -86.4490 51° Northeast 202 232 12,600 53 Level FlightAware ADS-B
Fri 01:45:41 PM 35.6810 -86.4070 50° Northeast 200 230 12,700 72 Climbing FlightAware ADS-B
Fri 01:46:16 PM 35.7020 -86.3760 50° Northeast 202 232 12,700  Level FlightAware ADS-B
Fri 01:47:11 PM 35.7350 -86.3280 50° Northeast 202 232 12,700  Level FlightAware ADS-B
Fri 01:47:43 PM 35.7540 -86.3000 50° Northeast 204 235 12,700  Level FlightAware ADS-B
Fri 01:48:49 PM 35.7950 -86.2390 50° Northeast 206 237 12,700  Level FlightAware ADS-B
Fri 01:49:27 PM 35.8180 -86.2040 51° Northeast 205 236 12,700  Level FlightAware ADS-B
Fri 01:50:03 PM 35.8380 -86.1710 53° Northeast 209 241 12,700  Level FlightAware ADS-B
Fri 01:50:45 PM 35.8640 -86.1310 51° Northeast 207 238 12,700  Level FlightAware ADS-B
Fri 01:51:14 PM 35.8810 -86.1050 51° Northeast 207 238 12,700  Level FlightAware ADS-B
Fri 01:51:48 PM 35.9010 -86.0730 52° Northeast 208 239 12,700  Level FlightAware ADS-B
Fri 01:52:28 PM 35.9240 -86.0390 50° Northeast 207 238 12,700  Level FlightAware ADS-B
Fri 01:53:08 PM 35.9470 -86.0040 51° Northeast 210 242 12,700  Level FlightAware ADS-B
Fri 01:53:44 PM 35.9710 -85.9680 51° Northeast 208 239 12,700  Level FlightAware ADS-B
Fri 01:54:13 PM 35.9890 -85.9400 52° Northeast 206 237 12,700  Level FlightAware ADS-B
Fri 01:54:55 PM 36.0110 -85.9060 51° Northeast 206 237 12,700  Level FlightAware ADS-B
Fri 01:55:30 PM 36.0340 -85.8710 51° Northeast 208 239 12,700  Level FlightAware ADS-B
Fri 01:56:33 PM 36.0650 -85.8200 53° Northeast 208 239 12,700 58 Level FlightAware ADS-B
Fri 01:57:13 PM 36.0930 -85.7770 51° Northeast 208 239 12,800  Climbing FlightAware ADS-B
Fri 01:57:48 PM 36.1170 -85.7390 52° Northeast 209 241 12,700 -76 Descending FlightAware ADS-B
Fri 01:58:32 PM 36.1430 -85.6970 53° Northeast 211 243 12,700  Level FlightAware ADS-B
Fri 01:58:53 PM 36.1550 -85.6780 52° Northeast 212 244 12,700  Level FlightAware ADS-B
Fri 02:00:02 PM 36.1960 -85.6090 54° Northeast 215 247 12,700  Level FlightAware ADS-B
Fri 02:01:01 PM 36.2280 -85.5580 52° Northeast 212 244 12,700  Level FlightAware ADS-B
Fri 02:01:37 PM 36.2460 -85.5280 53° Northeast 212 244 12,700  Level FlightAware ADS-B
Fri 02:02:31 PM 36.2842 -85.4670 52° Northeast 12,700  Level FlightAware ADS-B
Fri 02:02:45 PM 36.2930 -85.4531 52° Northeast 210 242 12,700  Level FlightAware ADS-B
Fri 02:03:17 PM 36.3125 -85.4233 51° Northeast 211 243 12,700  Level FlightAware ADS-B
Fri 02:03:38 PM 36.3251 -85.4031 52° Northeast 211 243 12,700  Level FlightAware ADS-B
Fri 02:04:09 PM 36.3432 -85.3734 53° Northeast 210 242 12,700  Level FlightAware ADS-B
Fri 02:04:36 PM 36.3586 -85.3482 53° Northeast 206 237 12,700  Level FlightAware ADS-B
Fri 02:05:01 PM 36.3744 -85.3250 50° Northeast 208 239 12,700  Level FlightAware ADS-B
Fri 02:05:35 PM 36.3953 -85.2942 50° Northeast 209 241 12,700  Level FlightAware ADS-B
Fri 02:05:46 PM 36.4022 -85.2844 49° Northeast 211 243 12,700  Level FlightAware ADS-B
Fri 02:06:16 PM 36.4211 -85.2561 50° Northeast 212 244 12,700 98 Level FlightAware ADS-B
Fri 02:06:47 PM 36.4404 -85.2271 50° Northeast 209 241 12,800  Climbing FlightAware ADS-B
Fri 02:07:21 PM 36.4620 -85.1958 49° Northeast 211 243 12,700 -92 Descending FlightAware ADS-B
Fri 02:07:52 PM 36.4807 -85.1665 52° Northeast 212 244 12,700  Level FlightAware ADS-B
Fri 02:08:26 PM 36.5010 -85.1331 53° Northeast 211 243 12,700  Level FlightAware ADS-B
Fri 02:09:01 PM 36.5209 -85.0994 54° Northeast 211 243 12,700  Level FlightAware ADS-B
Fri 02:09:24 PM 36.5342 -85.0766 54° Northeast 211 243 12,700  Level FlightAware ADS-B
Fri 02:09:44 PM 36.5459 -85.0568 54° Northeast 208 239 12,700  Level FlightAware ADS-B
Fri 02:09:59 PM 36.5550 -85.0429 51° Northeast 208 239 12,700  Level FlightAware ADS-B
Fri 02:10:30 PM 36.5733 -85.0140 52° Northeast 209 241 12,700  Level FlightAware ADS-B
Fri 02:11:05 PM 36.5942 -84.9811 52° Northeast 209 241 12,700  Level FlightAware ADS-B
Fri 02:11:23 PM 36.6054 -84.9636 51° Northeast 212 244 12,700  Level FlightAware ADS-B
Fri 02:11:55 PM 36.6253 -84.9344 50° Northeast 212 244 12,700  Level FlightAware ADS-B
Fri 02:12:26 PM 36.6450 -84.9058 49° Northeast 209 241 12,700  Level FlightAware ADS-B
Fri 02:12:52 PM 36.6616 -84.8815 50° Northeast 210 242 12,700 115 Level FlightAware ADS-B
Fri 02:13:18 PM 36.6772 -84.8571 51° Northeast 204 235 12,800  Climbing FlightAware ADS-B
Fri 02:13:50 PM 36.6956 -84.8270 53° Northeast 209 241 12,700  Descending FlightAware ADS-B
Fri 02:14:04 PM 36.7037 -84.8139 52° Northeast 207 238 12,800  Climbing FlightAware ADS-B
Fri 02:14:36 PM 36.7227 -84.7825 53° Northeast 212 244 12,700 -94 Descending FlightAware ADS-B
Fri 02:15:08 PM 36.7406 -84.7511 55° Northeast 210 242 12,700 41 Level FlightAware ADS-B
Fri 02:17:04 PM 36.8082 -84.6385 53° Northeast 210 242 12,800  Climbing FlightAware ADS-B
Fri 02:18:12 PM 36.8493 -84.5750 51° Northeast 207 238 12,700 -55 Descending FlightAware ADS-B
Fri 02:18:54 PM 36.8757 -84.5366 49° Northeast 206 237 12,700  Level FlightAware ADS-B
Fri 02:19:57 PM 36.9151 -84.4784 50° Northeast 205 236 12,700  Level FlightAware ADS-B
Fri 02:20:38 PM 36.9356 -84.4358 59° Northeast 205 236 12,700  Level FlightAware ADS-B
Fri 02:20:46 PM 36.9390 -84.4271 64° Northeast 218 251 12,700  Level FlightAware ADS-B
Fri 02:20:55 PM 36.9431 -84.4178 61° Northeast 216 249 12,700 -73 Level FlightAware ADS-B
Fri 02:22:08 PM 36.9830 -84.3510 53° Northeast 208 239 12,600 -58 Descending FlightAware ADS-B
Fri 02:22:38 PM 37.0030 -84.3180 53° Northeast 205 236 12,600  Level FlightAware ADS-B
Fri 02:23:47 PM 37.0450 -84.2540 51° Northeast 207 238 12,600  Level FlightAware ADS-B
Fri 02:24:22 PM 37.0650 -84.2220 52° Northeast 205 236 12,600  Level FlightAware ADS-B
Fri 02:24:54 PM 37.0840 -84.1920 52° Northeast 206 237 12,600  Level FlightAware ADS-B
Fri 02:25:38 PM 37.1110 -84.1510 50° Northeast 206 237 12,600 81 Level FlightAware ADS-B
Fri 02:26:08 PM 37.1290 -84.1220 52° Northeast 205 236 12,700 188 Climbing FlightAware ADS-B
Fri 02:26:42 PM 37.1490 -84.0900 52° Northeast 207 238 12,800  Climbing FlightAware ADS-B
Fri 02:27:26 PM 37.1740 -84.0500 52° Northeast 209 241 12,700 -79 Descending FlightAware ADS-B
Fri 02:27:58 PM 37.1940 -84.0190 51° Northeast 209 241 12,700  Level FlightAware ADS-B
Fri 02:28:28 PM 37.2110 -83.9910 53° Northeast 206 237 12,700  Level FlightAware ADS-B
Fri 02:29:08 PM 37.2350 -83.9510 53° Northeast 207 238 12,700 -78 Level FlightAware ADS-B
Fri 02:29:45 PM 37.2560 -83.9170 52° Northeast 204 235 12,600 -64 Descending FlightAware ADS-B
Fri 02:30:42 PM 37.2890 -83.8620 53° Northeast 203 234 12,600  Level FlightAware ADS-B
Fri 02:31:12 PM 37.3050 -83.8340 54° Northeast 203 234 12,600  Level FlightAware ADS-B
Fri 02:31:56 PM 37.3290 -83.7920 54° Northeast 201 231 12,600 73 Level FlightAware ADS-B
Fri 02:32:34 PM 37.3490 -83.7560 55° Northeast 200 230 12,700 79 Climbing FlightAware ADS-B
Fri 02:33:12 PM 37.3710 -83.7200 52° Northeast 200 230 12,700  Level FlightAware ADS-B
Fri 02:33:52 PM 37.3930 -83.6830 53° Northeast 201 231 12,700  Level FlightAware ADS-B
Fri 02:34:22 PM 37.4100 -83.6540 54° Northeast 201 231 12,700 61 Level FlightAware ADS-B
Fri 02:35:30 PM 37.4480 -83.5910 53° Northeast 199 229 12,800  Climbing FlightAware ADS-B
Fri 02:36:47 PM 37.4890 -83.5260 52° Northeast 200 230 12,700 -55 Descending FlightAware ADS-B
Fri 02:37:20 PM 37.5090 -83.4910 54° Northeast 198 228 12,700  Level FlightAware ADS-B
Fri 02:37:55 PM 37.5300 -83.4570 52° Northeast 199 229 12,700  Level FlightAware ADS-B
Fri 02:38:46 PM 37.5540 -83.4170 53° Northeast 199 229 12,700  Level FlightAware ADS-B
Fri 02:39:10 PM 37.5650 -83.3980 54° Northeast 199 229 12,700  Level FlightAware ADS-B
Fri 02:39:47 PM 37.5830 -83.3690 52° Northeast 199 229 12,700 -16 Level FlightAware ADS-B
Fri 02:45:32 PM 37.7820 -83.0340 53° Northeast 197 227 12,600 -16 Descending FlightAware ADS-B
Fri 02:46:03 PM 37.8010 -83.0020 53° Northeast 197 227 12,600  Level FlightAware ADS-B
Fri 02:46:39 PM 37.8220 -82.9700 50° Northeast 196 226 12,600 62 Level FlightAware ADS-B
Fri 02:47:40 PM 37.8520 -82.9160 55° Northeast 202 232 12,700 62 Climbing FlightAware ADS-B
Fri 02:48:16 PM 37.8690 -82.8860 54° Northeast 202 232 12,700  Level FlightAware ADS-B
Fri 02:48:53 PM 37.8860 -82.8560 54° Northeast 202 232 12,700  Level FlightAware ADS-B
Fri 02:49:05 PM 37.8910 -82.8460 58° Northeast 202 232 12,700 258 Level FlightAware ADS-B
Fri 02:50:26 PM 37.9389 -82.7464 58° Northeast 203 234 13,100 168 Climbing Indianapolis Center
Fri 02:51:28 PM 37.9736 -82.6903 52° Northeast 203 234 13,100 48 Level Indianapolis Center
Fri 02:52:30 PM 38.0072 -82.6344 53° Northeast 200 230 13,200 -63 Climbing Indianapolis Center
Fri 02:57:51 PM 38.1810 -82.3340 53° Northeast 196 226 12,700 -85 Descending FlightAware ADS-B
Fri 02:58:25 PM 38.1970 -82.3070 53° Northeast 196 226 12,700  Level FlightAware ADS-B
Fri 02:59:01 PM 38.2130 -82.2790 54° Northeast 196 226 12,700  Level FlightAware ADS-B
Fri 03:00:05 PM 38.2610 -82.2110 48° Northeast 200 230 12,700  Level FlightAware ADS-B
Fri 03:01:05 PM 38.2940 -82.1530 54° Northeast 197 227 12,700  Level FlightAware ADS-B
Fri 03:01:37 PM 38.3110 -82.1220 55° Northeast 196 226 12,700  Level FlightAware ADS-B
Fri 03:02:15 PM 38.3300 -82.0870 55° Northeast 194 223 12,700  Level FlightAware ADS-B
Fri 03:02:54 PM 38.3510 -82.0520 53° Northeast 195 224 12,700 61 Level FlightAware ADS-B
Fri 03:03:54 PM 38.3840 -81.9980 52° Northeast 194 223 12,800 50 Climbing FlightAware ADS-B
Fri 03:04:55 PM 38.4160 -81.9410 54° Northeast 200 230 12,800  Level FlightAware ADS-B
Fri 03:05:27 PM 38.4330 -81.9100 55° Northeast 201 231 12,800 -65 Level FlightAware ADS-B
Fri 03:06:28 PM 38.4660 -81.8510 54° Northeast 196 226 12,700 -63 Descending FlightAware ADS-B
Fri 03:07:02 PM 38.4830 -81.8180 57° Northeast 198 228 12,700  Level FlightAware ADS-B
Fri 03:07:35 PM 38.4990 -81.7870 57° Northeast 198 228 12,700 81 Level FlightAware ADS-B
Fri 03:08:16 PM 38.5200 -81.7470 56° Northeast 196 226 12,800  Climbing FlightAware ADS-B
Fri 03:08:47 PM 38.5360 -81.7160 57° Northeast 199 229 12,700  Descending FlightAware ADS-B
Fri 03:09:22 PM 38.5530 -81.6830 57° Northeast 198 228 12,800 98 Climbing FlightAware ADS-B
Fri 03:09:48 PM 38.5660 -81.6580 56° Northeast 195 224 12,800  Level FlightAware ADS-B
Fri 03:10:30 PM 38.5900 -81.6200 51° Northeast 193 222 12,800  Level FlightAware ADS-B
Fri 03:10:56 PM 38.6050 -81.5970 50° Northeast 194 223 12,800  Level FlightAware ADS-B
Fri 03:11:30 PM 38.6250 -81.5670 50° Northeast 194 223 12,800  Level FlightAware ADS-B
Fri 03:11:43 PM 38.6320 -81.5560 51° Northeast 197 227 12,800 -79 Level FlightAware ADS-B
Fri 03:12:46 PM 38.6660 -81.4950 54° Northeast 197 227 12,700 -60 Descending FlightAware ADS-B
Fri 03:13:23 PM 38.6860 -81.4600 54° Northeast 196 226 12,700  Level FlightAware ADS-B
Fri 03:14:20 PM 38.7150 -81.4050 56° Northeast 197 227 12,700  Level FlightAware ADS-B
Fri 03:14:56 PM 38.7320 -81.3700 58° Northeast 197 227 12,700  Level FlightAware ADS-B
Fri 03:15:37 PM 38.7520 -81.3290 58° Northeast 196 226 12,700 58 Level FlightAware ADS-B
Fri 03:16:40 PM 38.7840 -81.2700 55° Northeast 189 217 12,800 50 Climbing FlightAware ADS-B
Fri 03:17:37 PM 38.8130 -81.2170 55° Northeast 194 223 12,800  Level FlightAware ADS-B
Fri 03:18:14 PM 38.8300 -81.1870 54° Northeast 194 223 12,800  Level FlightAware ADS-B
Fri 03:18:50 PM 38.8450 -81.1580 56° Northeast 194 223 12,800  Level FlightAware ADS-B
Fri 03:19:36 PM 38.8660 -81.1210 54° Northeast 194 223 12,800 188 Level FlightAware ADS-B
Fri 03:20:26 PM 38.8975 -81.0636 54° Northeast 199 229 13,100 161 Climbing Indianapolis Center
Fri 03:21:28 PM 38.9300 -81.0067 54° Northeast 199 229 13,100  Level Indianapolis Center
Fri 03:22:30 PM 38.9625 -80.9503 53° Northeast 197 227 13,100  Level Indianapolis Center
Fri 03:23:32 PM 39.0006 -80.8792 55° Northeast 200 230 13,100  Level Indianapolis Center
Fri 03:24:34 PM 39.0314 -80.8192 57° Northeast 201 231 13,100 -48 Level Indianapolis Center
Fri 03:25:36 PM 39.0622 -80.7614 55° Northeast 198 228 13,000 -48 Descending Indianapolis Center
Fri 03:26:38 PM 39.0933 -80.7025 56° Northeast 197 227 13,000  Level Indianapolis Center
Fri 03:27:40 PM 39.1244 -80.6419 56° Northeast 201 231 13,000  Level Indianapolis Center
Fri 03:28:42 PM 39.1578 -80.5853 53° Northeast 200 230 13,000  Level Indianapolis Center
Fri 03:29:44 PM 39.1914 -80.5303 52° Northeast 197 227 13,000  Level Indianapolis Center
Fri 03:30:46 PM 39.2325 -80.4656 51° Northeast 195 224 13,000 48 Level Indianapolis Center
Fri 03:31:48 PM 39.2658 -80.4069 54° Northeast 199 229 13,100  Climbing Indianapolis Center
Fri 03:32:51 PM 39.2994 -80.3486 53° Northeast 202 232 13,000 -48 Descending Indianapolis Center
Fri 03:33:53 PM 39.3317 -80.2889 55° Northeast 202 232 13,000 48 Level Indianapolis Center
Fri 03:34:55 PM 39.3631 -80.2261 57° Northeast 205 236 13,100  Climbing Indianapolis Center
Fri 03:35:57 PM 39.3947 -80.1650 56° Northeast 205 236 13,000  Descending Indianapolis Center
Fri 03:36:59 PM 39.4292 -80.1078 52° Northeast 202 232 13,100 48 Climbing Indianapolis Center
Fri 03:38:01 PM 39.4683 -80.0344 55° Northeast 205 236 13,100  Level Indianapolis Center
Fri 03:39:03 PM 39.5003 -79.9725 56° Northeast 205 236 13,100 -62 Level Indianapolis Center
Fri 03:44:26 PM 39.6790 -79.6460 56° Northeast 198 228 12,700 -47 Descending FlightAware ADS-B
Fri 03:45:22 PM 39.7050 -79.5930 57° Northeast 197 227 12,800 55 Climbing FlightAware ADS-B
Fri 03:46:15 PM 39.7330 -79.5370 57° Northeast 198 228 12,800  Level FlightAware ADS-B
Fri 03:46:52 PM 39.7500 -79.5030 57° Northeast 196 226 12,800  Level FlightAware ADS-B
Fri 03:47:45 PM 39.7780 -79.4490 56° Northeast 194 223 12,800  Level FlightAware ADS-B
Fri 03:48:13 PM 39.7930 -79.4210 55° Northeast 192 221 12,800  Level FlightAware ADS-B
Fri 03:49:28 PM 39.8330 -79.3520 53° Northeast 198 228 12,800  Level FlightAware ADS-B
Fri 03:49:53 PM 39.8470 -79.3280 53° Northeast 199 229 12,800 -76 Level FlightAware ADS-B
Fri 03:50:47 PM 39.8750 -79.2740 56° Northeast 195 224 12,700  Descending FlightAware ADS-B
Fri 03:51:16 PM 39.8890 -79.2460 57° Northeast 194 223 12,800 92 Climbing FlightAware ADS-B
Fri 03:51:52 PM 39.9070 -79.2110 56° Northeast 197 227 12,800  Level FlightAware ADS-B
Fri 03:52:32 PM 39.9270 -79.1700 58° Northeast 199 229 12,800  Level FlightAware ADS-B
Fri 03:53:06 PM 39.9450 -79.1370 55° Northeast 201 231 12,800  Level FlightAware ADS-B
Fri 03:53:36 PM 39.9610 -79.1070 55° Northeast 201 231 12,800 -63 Level FlightAware ADS-B
Fri 03:54:42 PM 39.9930 -79.0400 58° Northeast 200 230 12,700 -60 Descending FlightAware ADS-B
Fri 03:55:16 PM 40.0100 -79.0050 58° Northeast 194 223 12,700 -62 Level FlightAware ADS-B
Fri 03:56:19 PM 40.0400 -78.9440 57° Northeast 189 217 12,600  Descending FlightAware ADS-B
Fri 03:56:47 PM 40.0530 -78.9170 58° Northeast 179 206 12,700 88 Climbing FlightAware ADS-B
Fri 03:57:27 PM 40.0720 -78.8830 54° Northeast 188 216 12,700 79 Level FlightAware ADS-B
Fri 03:58:03 PM 40.0910 -78.8480 55° Northeast 187 215 12,800 78 Climbing FlightAware ADS-B
Fri 03:58:44 PM 40.1120 -78.8090 55° Northeast 199 229 12,800 -58 Level FlightAware ADS-B
Fri 03:59:46 PM 40.1440 -78.7480 56° Northeast 196 226 12,700  Descending FlightAware ADS-B
Fri 04:00:10 PM 40.1570 -78.7250 54° Northeast 191 220 12,800 73 Climbing FlightAware ADS-B
Fri 04:01:08 PM 40.1840 -78.6720 56° Northeast 197 227 12,800  Level FlightAware ADS-B
Fri 04:01:44 PM 40.2000 -78.6420 55° Northeast 197 227 12,800 -79 Level FlightAware ADS-B
Fri 04:02:24 PM 40.2220 -78.5990 56° Northeast 196 226 12,700 -78 Descending FlightAware ADS-B
Fri 04:03:01 PM 40.2380 -78.5680 56° Northeast 196 226 12,700  Level FlightAware ADS-B
Fri 04:03:49 PM 40.2590 -78.5280 55° Northeast 196 226 12,700 143 Level FlightAware ADS-B
Fri 04:05:07 PM 40.2972 -78.4458 55° Northeast 195 224 13,000 171 Climbing Cleveland Center
Fri 04:06:09 PM 40.3333 -78.3781 55° Northeast 192 221 13,100  Climbing Cleveland Center
Fri 04:07:11 PM 40.3661 -78.3211 53° Northeast 194 223 13,000 -48 Descending Cleveland Center
Fri 04:08:13 PM 40.3967 -78.2642 55° Northeast 194 223 13,000 48 Level Cleveland Center
Fri 04:09:15 PM 40.4258 -78.2114 54° Northeast 187 215 13,100 48 Climbing Cleveland Center
Fri 04:10:17 PM 40.4556 -78.1556 55° Northeast 188 216 13,100  Level Cleveland Center
Fri 04:11:19 PM 40.4928 -78.0861 55° Northeast 196 226 13,100  Level Cleveland Center
Fri 04:12:21 PM 40.5186 -78.0236 61° Northeast 198 228 13,100  Level Cleveland Center
Fri 04:13:24 PM 40.5450 -77.9617 61° Northeast 196 226 13,100  Level Cleveland Center
Fri 04:14:26 PM 40.5728 -77.9019 59° Northeast 194 223 13,100  Level Cleveland Center
Fri 04:15:28 PM 40.6006 -77.8414 59° Northeast 194 223 13,100  Level Cleveland Center
Fri 04:16:30 PM 40.6361 -77.7753 55° Northeast 188 216 13,100 -49 Level Cleveland Center
Fri 04:21:34 PM 40.7890 -77.4840 55° Northeast 189 217 12,800 -53 Descending FlightAware ADS-B
Fri 04:22:11 PM 40.8050 -77.4550 54° Northeast 190 219 12,800 103 Level FlightAware ADS-B
Fri 04:22:32 PM 40.8200 -77.4300 52° Northeast 184 212 12,900 111 Climbing FlightAware ADS-B
Fri 04:23:05 PM 40.8350 -77.3990 57° Northeast 189 217 12,900 -70 Level FlightAware ADS-B
Fri 04:23:58 PM 40.8590 -77.3500 57° Northeast 184 212 12,800 -61 Descending FlightAware ADS-B
Fri 04:24:44 PM 40.8790 -77.3080 58° Northeast 184 212 12,800 77 Level FlightAware ADS-B
Fri 04:25:16 PM 40.8940 -77.2780 57° Northeast 186 214 12,900 62 Climbing FlightAware ADS-B
Fri 04:26:21 PM 40.9240 -77.2180 56° Northeast 190 219 12,900  Level FlightAware ADS-B
Fri 04:26:45 PM 40.9370 -77.1910 57° Northeast 194 223 12,900  Level FlightAware ADS-B
Fri 04:27:21 PM 40.9540 -77.1550 58° Northeast 196 226 12,900  Level FlightAware ADS-B
Fri 04:27:51 PM 40.9680 -77.1250 58° Northeast 198 228 12,900 -100 Level FlightAware ADS-B
Fri 04:28:21 PM 40.9840 -77.0920 57° Northeast 204 235 12,800  Descending FlightAware ADS-B
Fri 04:29:01 PM 41.0030 -77.0500 59° Northeast 195 224 12,900 86 Climbing FlightAware ADS-B
Fri 04:29:31 PM 41.0170 -77.0200 58° Northeast 196 226 12,900 -94 Level FlightAware ADS-B
Fri 04:30:05 PM 41.0330 -76.9840 59° Northeast 200 230 12,800 -88 Descending FlightAware ADS-B
Fri 04:30:39 PM 41.0480 -76.9490 60° Northeast 202 232 12,800  Level FlightAware ADS-B
Fri 04:31:37 PM 41.0760 -76.8860 59° Northeast 205 236 12,800 -148 Level FlightAware ADS-B
Fri 04:32:00 PM 41.0880 -76.8610 58° Northeast 215 247 12,600 -632 Descending FlightAware ADS-B
Fri 04:33:12 PM 41.1270 -76.7780 58° Northeast 218 251 11,800 -720 Descending FlightAware ADS-B
Fri 04:33:40 PM 41.1420 -76.7450 59° Northeast 215 247 11,400 -964 Descending FlightAware ADS-B
Fri 04:34:08 PM 41.1580 -76.7140 56° Northeast 216 249 10,900 -651 Descending FlightAware ADS-B
Fri 04:35:03 PM 41.1860 -76.6560 57° Northeast 209 241 10,500 -506 Descending FlightAware ADS-B
Fri 04:35:31 PM 41.2020 -76.6230 57° Northeast 211 243 10,200 -533 Descending FlightAware ADS-B
Fri 04:35:48 PM 41.2100 -76.6070 56° Northeast 208 239 10,100 -338 Descending FlightAware ADS-B
Fri 04:36:42 PM 41.2390 -76.5490 56° Northeast 202 232 9,800 -329 Descending FlightAware ADS-B
Fri 04:37:01 PM 41.2480 -76.5300 58° Northeast 203 234 9,700 -130 Descending FlightAware ADS-B
Fri 04:37:28 PM 41.2620 -76.5010 57° Northeast 199 229 9,700 -140 Level FlightAware ADS-B
Fri 04:37:44 PM 41.2700 -76.4850 56° Northeast 195 224 9,600 -240 Descending FlightAware ADS-B
Fri 04:38:18 PM 41.2840 -76.4560 57° Northeast 196 226 9,500 -364 Descending FlightAware ADS-B
Fri 04:38:50 PM 41.3030 -76.4190 56° Northeast 192 221 9,200 -214 Descending FlightAware ADS-B
Fri 04:39:42 PM 41.3260 -76.3770 54° Northeast 192 221 9,200  Level FlightAware ADS-B
Fri 04:40:07 PM 41.3370 -76.3560 55° Northeast 192 221 9,200  Level FlightAware ADS-B
Fri 04:40:44 PM 41.3530 -76.3260 55° Northeast 192 221 9,200 -184 Level FlightAware ADS-B
Fri 04:41:45 PM 41.3819 -76.2594 55° Northeast 183 211 8,900 -492 Descending New York Center
Fri 04:42:46 PM 41.4119 -76.1983 57° Northeast 183 211 8,200 -504 Descending New York Center
Fri 04:43:44 PM 41.4353 -76.1447 60° Northeast 183 211 7,900 -407 Descending New York Center
Fri 04:44:44 PM 41.4628 -76.0889 57° Northeast 178 205 7,400 -793 Descending New York Center
Fri 04:45:45 PM 41.4928 -76.0247 58° Northeast 178 205 6,300 -893 Descending New York Center
Fri 04:46:45 PM 41.5183 -75.9631 61° Northeast 184 212 5,600 1,339 Descending New York Center
Fri 04:47:46 PM 41.5417 -75.9039 62° Northeast 184 212 9,000 1,686 Climbing New York Center
Fri 04:48:46 PM 41.5653 -75.8419 63° Northeast 184 212 9,000  Level New York Center
Fri 04:49:44 PM 41.5886 -75.7828 62° Northeast 184 212 9,000  Level New York Center
Fri 04:50:45 PM 41.6025 -75.7450 64° Northeast 184 212 9,000  Level New York Center
Fri 04:56:00 PM 41.5670 -75.8231 239° Southwest  Level FlightAware Approximate
Fri 05:03:00 PM 41.5167 -75.9333 241° Southwest  Level FlightAware Approximate
Fri 05:04:00 PM 41.5292 -75.9469 241° Southwest  Level Estimated
Fri 05:05:00 PM 41.5292 -75.9469 241° Southwest  Level Estimated
Fri 05:06:00 PM 41.5292 -75.9469 241° Southwest  Level Estimated
Fri 05:07:00 PM 41.5292 -75.9469 241° Southwest  Level Estimated
Fri 05:08:00 PM 41.5292 -75.9469 241° Southwest  Level Estimated

Login

Don't have an account? Register now (free) for customized features, flight alerts, and more!